createdAt,value
2019-02-14T00:00:14.060Z,0.10
2019-02-14T00:02:42.542Z,0.10
2019-02-14T00:05:16.461Z,0.00
2019-02-14T00:07:41.177Z,0.00
2019-02-14T00:10:10.348Z,0.10
2019-02-14T00:12:38.841Z,0.00
2019-02-14T00:15:12.333Z,-0.10
2019-02-14T00:17:40.817Z,-0.10
2019-02-14T00:20:10.063Z,-0.10
2019-02-14T00:22:38.493Z,-0.10
2019-02-14T00:25:07.390Z,-0.10
2019-02-14T00:27:36.144Z,-0.20
2019-02-14T00:30:05.925Z,-0.10
2019-02-14T00:32:34.415Z,0.00
2019-02-14T00:35:02.870Z,-0.10
2019-02-14T00:37:31.327Z,-0.10
2019-02-14T00:40:01.634Z,-0.30
2019-02-14T00:42:30.193Z,-0.50
2019-02-14T00:44:58.648Z,-0.50
2019-02-14T00:47:27.083Z,-0.60
2019-02-14T00:49:55.534Z,-0.60
2019-02-14T00:52:24.026Z,-0.60
2019-02-14T00:54:52.518Z,-0.70
2019-02-14T00:57:20.975Z,-0.70
2019-02-14T00:59:49.436Z,-0.70
2019-02-14T01:02:18.017Z,-0.70
2019-02-14T01:04:46.450Z,-0.60
2019-02-14T01:07:14.881Z,-0.60
2019-02-14T01:09:43.365Z,-0.60
2019-02-14T01:12:11.922Z,-0.70
2019-02-14T01:14:40.354Z,-0.60
2019-02-14T01:17:08.852Z,-0.60
2019-02-14T01:19:37.483Z,-0.70
2019-02-14T01:22:05.946Z,-0.70
2019-02-14T01:24:34.419Z,-0.80
2019-02-14T01:27:02.925Z,-0.90
2019-02-14T01:29:31.422Z,-0.90
2019-02-14T01:31:59.937Z,-0.90
2019-02-14T01:34:28.403Z,-0.80
2019-02-14T01:36:56.843Z,-0.90
2019-02-14T01:39:25.322Z,-0.90
2019-02-14T01:41:53.839Z,-0.90
2019-02-14T01:44:22.378Z,-0.80
2019-02-14T01:46:50.853Z,-0.70
2019-02-14T01:49:19.303Z,-0.70
2019-02-14T01:51:47.762Z,-0.70
2019-02-14T01:54:16.196Z,-0.70
2019-02-14T01:56:44.650Z,-0.60
2019-02-14T01:59:13.104Z,-0.60
2019-02-14T02:01:41.696Z,-0.60
2019-02-14T02:04:10.220Z,-0.50
2019-02-14T02:06:38.674Z,-0.50
2019-02-14T02:09:07.143Z,-0.50
2019-02-14T02:11:35.706Z,-0.60
2019-02-14T02:14:04.393Z,-0.60
2019-02-14T02:16:32.879Z,-0.60
2019-02-14T02:19:02.315Z,-0.60
2019-02-14T02:21:30.814Z,-0.50
2019-02-14T02:23:59.294Z,-0.60
2019-02-14T02:26:27.732Z,-0.60
2019-02-14T02:28:56.182Z,-0.60
2019-02-14T02:31:24.666Z,-0.50
2019-02-14T02:33:53.098Z,-0.60
2019-02-14T02:36:21.566Z,-0.60
2019-02-14T02:38:50.030Z,-0.60
2019-02-14T02:41:18.578Z,-0.60
2019-02-14T02:43:47.048Z,-0.50
2019-02-14T02:46:15.497Z,-0.50
2019-02-14T02:48:43.953Z,-0.50
2019-02-14T02:51:12.386Z,-0.50
2019-02-14T02:53:40.853Z,-0.50
2019-02-14T02:56:09.287Z,-0.70
2019-02-14T02:58:37.779Z,-0.70
2019-02-14T03:01:06.311Z,-0.80
2019-02-14T03:03:34.759Z,-0.80
2019-02-14T03:06:10.240Z,-0.90
2019-02-14T03:08:33.407Z,-0.90
2019-02-14T03:11:01.978Z,-1.00
2019-02-14T03:13:30.505Z,-1.10
2019-02-14T03:15:58.958Z,-1.10
2019-02-14T03:18:27.393Z,-1.20
2019-02-14T03:20:55.878Z,-1.20
2019-02-14T03:23:24.348Z,-1.10
2019-02-14T03:25:52.901Z,-1.20
2019-02-14T03:28:21.397Z,-1.20
2019-02-14T03:30:49.928Z,-1.10
2019-02-14T03:33:18.406Z,-1.00
2019-02-14T03:35:46.944Z,-0.90
2019-02-14T03:38:15.422Z,-0.90
2019-02-14T03:40:43.881Z,-0.70
2019-02-14T03:43:12.369Z,-0.70
2019-02-14T03:45:40.891Z,-0.70
2019-02-14T03:48:09.317Z,-0.90
2019-02-14T03:50:37.781Z,-1.00
2019-02-14T03:53:06.266Z,-1.20
2019-02-14T03:55:34.769Z,-1.40
2019-02-14T03:58:03.297Z,-1.40
2019-02-14T04:00:31.781Z,-1.50
2019-02-14T04:03:00.213Z,-1.50
2019-02-14T04:05:28.683Z,-1.50
2019-02-14T04:07:57.137Z,-1.50
2019-02-14T04:10:25.574Z,-1.50
2019-02-14T04:12:54.072Z,-1.50
2019-02-14T04:15:22.523Z,-1.50
2019-02-14T04:17:50.978Z,-1.50
2019-02-14T04:20:19.445Z,-1.50
2019-02-14T04:22:48.553Z,-1.60
2019-02-14T04:25:17.078Z,-1.60
2019-02-14T04:27:45.589Z,-1.80
2019-02-14T04:30:14.805Z,-1.80
2019-02-14T04:32:43.269Z,-1.80
2019-02-14T04:35:11.931Z,-1.80
2019-02-14T04:37:40.392Z,-1.70
2019-02-14T04:40:11.461Z,-1.70
2019-02-14T04:42:39.977Z,-1.70
2019-02-14T04:45:10.078Z,-1.70
2019-02-14T04:47:38.549Z,-1.70
2019-02-14T04:50:09.259Z,-1.70
2019-02-14T04:52:37.725Z,-1.70
2019-02-14T04:55:10.916Z,-1.70
2019-02-14T04:57:39.398Z,-1.70
2019-02-14T05:00:17.133Z,-1.90
2019-02-14T05:02:45.612Z,-1.90
2019-02-14T05:05:14.089Z,-1.90
2019-02-14T05:07:42.574Z,-1.90
2019-02-14T05:10:12.086Z,-2.00
2019-02-14T05:12:40.638Z,-2.00
2019-02-14T05:15:10.572Z,-1.90
2019-02-14T05:17:39.094Z,-1.80
2019-02-14T05:20:10.379Z,-1.90
2019-02-14T05:22:38.938Z,-2.10
2019-02-14T05:25:08.838Z,-2.20
2019-02-14T05:27:37.390Z,-2.30
2019-02-14T05:30:10.659Z,-2.20
2019-02-14T05:32:39.094Z,-2.20
2019-02-14T05:35:08.417Z,-2.20
2019-02-14T05:37:36.870Z,-2.20
2019-02-14T05:40:08.164Z,-2.20
2019-02-14T05:42:36.677Z,-2.20
2019-02-14T05:45:07.714Z,-2.10
2019-02-14T05:47:36.141Z,-2.00
2019-02-14T05:50:07.214Z,-2.00
2019-02-14T05:52:35.677Z,-2.10
2019-02-14T05:55:05.454Z,-2.10
2019-02-14T05:57:33.909Z,-2.10
2019-02-14T06:00:02.366Z,-2.00
2019-02-14T06:02:32.208Z,-2.00
2019-02-14T06:05:00.735Z,-1.90
2019-02-14T06:07:29.186Z,-1.90
2019-02-14T06:09:57.649Z,-1.90
2019-02-14T06:12:26.124Z,-1.90
2019-02-14T06:14:54.573Z,-1.80
2019-02-14T06:17:23.035Z,-1.80
2019-02-14T06:19:51.491Z,-1.80
2019-02-14T06:22:19.925Z,-1.70
2019-02-14T06:24:48.386Z,-1.70
2019-02-14T06:27:16.890Z,-1.70
2019-02-14T06:29:45.358Z,-1.70
2019-02-14T06:32:13.825Z,-1.70
2019-02-14T06:34:42.280Z,-1.70
2019-02-14T06:37:10.770Z,-1.60
2019-02-14T06:39:39.225Z,-1.60
2019-02-14T06:42:07.772Z,-1.50
2019-02-14T06:44:36.298Z,-1.50
2019-02-14T06:47:04.880Z,-1.50
2019-02-14T06:49:33.490Z,-1.50
2019-02-14T06:52:01.920Z,-1.50
2019-02-14T06:54:30.404Z,-1.40
2019-02-14T06:56:58.897Z,-1.40
2019-02-14T06:59:27.418Z,-1.40
2019-02-14T07:01:55.845Z,-1.40
2019-02-14T07:04:24.423Z,-1.40
2019-02-14T07:06:52.874Z,-1.30
2019-02-14T07:09:21.349Z,-1.30
2019-02-14T07:11:49.865Z,-1.30
2019-02-14T07:14:18.325Z,-1.30
2019-02-14T07:16:46.785Z,-1.30
2019-02-14T07:19:15.246Z,-1.30
2019-02-14T07:21:43.718Z,-1.30
2019-02-14T07:24:12.161Z,-1.30
2019-02-14T07:26:40.657Z,-1.20
2019-02-14T07:29:09.153Z,-1.10
2019-02-14T07:31:37.613Z,-0.90
2019-02-14T07:34:06.049Z,-0.80
2019-02-14T07:36:34.513Z,-0.60
2019-02-14T07:39:04.318Z,-0.40
2019-02-14T07:41:32.781Z,-0.30
2019-02-14T07:44:01.241Z,-0.20
2019-02-14T07:46:29.699Z,-0.30
2019-02-14T07:48:58.147Z,-0.20
2019-02-14T07:51:26.582Z,-0.10
2019-02-14T07:53:55.085Z,0.10
2019-02-14T07:56:23.518Z,0.20
2019-02-14T07:58:51.970Z,0.20
2019-02-14T08:01:20.464Z,0.30
2019-02-14T08:03:48.889Z,0.30
2019-02-14T08:06:17.327Z,0.30
2019-02-14T08:08:45.818Z,0.30
2019-02-14T08:11:14.270Z,0.50
2019-02-14T08:13:42.720Z,0.60
2019-02-14T08:16:11.183Z,0.80
2019-02-14T08:18:39.639Z,0.90
2019-02-14T08:21:08.163Z,1.10
2019-02-14T08:23:36.646Z,1.20
2019-02-14T08:26:10.756Z,1.50
2019-02-14T08:28:35.301Z,1.60
2019-02-14T08:31:03.757Z,1.70
2019-02-14T08:33:32.197Z,1.90
2019-02-14T08:36:01.811Z,2.30
2019-02-14T08:38:30.259Z,2.40
2019-02-14T08:40:58.702Z,2.50
2019-02-14T08:43:27.195Z,2.60
2019-02-14T08:45:55.709Z,2.50
2019-02-14T08:48:24.199Z,2.60
2019-02-14T08:50:52.690Z,2.80
2019-02-14T08:53:21.219Z,2.80
2019-02-14T08:55:49.670Z,2.90
2019-02-14T08:58:18.147Z,3.00
2019-02-14T09:00:46.691Z,3.30
2019-02-14T09:03:15.178Z,3.50
2019-02-14T09:05:43.770Z,3.70
2019-02-14T09:08:12.268Z,3.60
2019-02-14T09:10:40.806Z,3.70
2019-02-14T09:13:16.977Z,3.70
2019-02-14T09:15:39.442Z,3.70
2019-02-14T09:18:07.983Z,3.80
2019-02-14T09:20:36.445Z,4.00
2019-02-14T09:23:04.865Z,4.30
2019-02-14T09:25:33.325Z,4.40
2019-02-14T09:28:01.757Z,4.60
2019-02-14T09:30:30.293Z,4.70
2019-02-14T09:32:58.777Z,4.90
2019-02-14T09:35:27.312Z,5.00
2019-02-14T09:38:03.111Z,4.90
2019-02-14T09:40:26.015Z,4.80
2019-02-14T09:42:54.513Z,4.80
2019-02-14T09:45:23.063Z,4.80
2019-02-14T09:47:51.581Z,4.80
2019-02-14T09:50:20.094Z,5.00
2019-02-14T09:52:48.569Z,5.00
2019-02-14T09:55:17.006Z,5.00
2019-02-14T09:57:45.485Z,5.00
2019-02-14T10:00:18.154Z,5.10
2019-02-14T10:02:46.687Z,5.10
2019-02-14T10:05:15.701Z,5.20
2019-02-14T10:07:44.266Z,5.10
2019-02-14T10:10:20.139Z,5.10
2019-02-14T10:12:48.620Z,5.10
2019-02-14T10:15:17.211Z,5.00
2019-02-14T10:17:45.680Z,5.00
2019-02-14T10:20:18.016Z,4.90
2019-02-14T10:22:46.829Z,4.90
2019-02-14T10:25:15.462Z,4.90
2019-02-14T10:27:43.975Z,4.90
2019-02-14T10:30:18.335Z,4.90
2019-02-14T10:32:46.794Z,5.00
2019-02-14T10:35:15.300Z,4.90
2019-02-14T10:37:44.151Z,4.80
2019-02-14T10:40:14.641Z,4.80
2019-02-14T10:42:43.102Z,4.70
2019-02-14T10:45:14.383Z,4.70
2019-02-14T10:47:43.010Z,4.70
2019-02-14T10:50:11.885Z,4.90
2019-02-14T10:52:40.351Z,5.00
2019-02-14T10:55:10.659Z,5.20
2019-02-14T10:57:39.092Z,5.40
2019-02-14T11:00:17.680Z,5.50
2019-02-14T11:02:46.674Z,5.60
2019-02-14T11:05:16.253Z,5.70
2019-02-14T11:07:44.686Z,5.60
2019-02-14T11:10:14.616Z,5.60
2019-02-14T11:12:43.271Z,5.50
2019-02-14T11:15:16.882Z,5.50
2019-02-14T11:17:45.424Z,5.40
2019-02-14T11:20:14.983Z,5.50
2019-02-14T11:22:43.474Z,5.50
2019-02-14T11:25:26.776Z,5.60
2019-02-14T11:27:55.215Z,5.70
2019-02-14T11:30:23.700Z,5.90
2019-02-14T11:32:52.170Z,5.90
2019-02-14T11:35:20.593Z,6.00
2019-02-14T11:37:49.073Z,6.00
2019-02-14T11:40:17.536Z,6.00
2019-02-14T11:42:46.017Z,6.00
2019-02-14T11:45:21.806Z,6.00
2019-02-14T11:47:50.339Z,6.10
2019-02-14T11:50:18.852Z,6.20
2019-02-14T11:52:47.342Z,6.20
2019-02-14T11:55:15.770Z,6.30
2019-02-14T11:57:44.287Z,6.40
2019-02-14T12:00:27.813Z,6.40
2019-02-14T12:02:56.502Z,6.50
2019-02-14T12:05:25.107Z,6.50
2019-02-14T12:07:53.591Z,6.50
2019-02-14T12:10:22.026Z,6.60
2019-02-14T12:12:50.479Z,6.60
2019-02-14T12:15:18.967Z,6.70
2019-02-14T12:17:47.508Z,6.70
2019-02-14T12:20:16.389Z,6.70
2019-02-14T12:22:47.108Z,6.80
2019-02-14T12:25:22.794Z,6.80
2019-02-14T12:27:51.313Z,6.90
2019-02-14T12:30:19.821Z,6.90
2019-02-14T12:32:48.390Z,7.00
2019-02-14T12:35:16.893Z,7.00
2019-02-14T12:37:45.370Z,7.00
2019-02-14T12:42:53.114Z,7.00
2019-02-14T12:45:26.031Z,7.00
2019-02-14T12:47:54.789Z,7.00
2019-02-14T12:50:23.225Z,7.00
2019-02-14T12:52:51.679Z,7.00
2019-02-14T12:55:20.230Z,7.00
2019-02-14T12:57:48.715Z,7.10
2019-02-14T13:00:21.920Z,7.10
2019-02-14T13:02:50.517Z,7.20
2019-02-14T13:05:19.027Z,7.30
2019-02-14T13:07:47.552Z,7.30
2019-02-14T13:10:17.551Z,7.30
2019-02-14T13:12:46.033Z,7.30
2019-02-14T13:15:17.031Z,7.30
2019-02-14T13:17:45.510Z,7.30
2019-02-14T13:20:13.979Z,7.40
2019-02-14T13:22:42.534Z,7.40
2019-02-14T13:25:12.202Z,7.30
2019-02-14T13:27:40.708Z,7.20
2019-02-14T13:30:12.439Z,7.20
2019-02-14T13:32:40.922Z,7.10
2019-02-14T13:35:09.449Z,7.10
2019-02-14T13:37:39.966Z,7.10
2019-02-14T13:40:08.857Z,7.10
2019-02-14T13:42:37.401Z,7.10
2019-02-14T13:45:09.181Z,7.10
2019-02-14T13:47:37.663Z,7.10
2019-02-14T13:50:08.866Z,7.00
2019-02-14T13:52:37.420Z,7.00
2019-02-14T13:55:08.185Z,7.00
2019-02-14T13:57:36.674Z,6.90
2019-02-14T14:00:14.175Z,6.90
2019-02-14T14:02:42.757Z,7.00
2019-02-14T14:05:11.255Z,7.00
2019-02-14T14:07:40.715Z,7.10
2019-02-14T14:10:10.149Z,7.10
2019-02-14T14:12:38.606Z,7.20
2019-02-14T14:15:09.113Z,7.30
2019-02-14T14:17:37.691Z,7.30
2019-02-14T14:20:08.450Z,7.30
2019-02-14T14:22:36.965Z,7.20
2019-02-14T14:25:07.178Z,7.20
2019-02-14T14:27:35.666Z,7.20
2019-02-14T14:30:06.582Z,7.20
2019-02-14T14:32:35.089Z,7.30
2019-02-14T14:35:04.003Z,7.20
2019-02-14T14:37:32.500Z,7.10
2019-02-14T14:40:00.929Z,7.10
2019-02-14T14:42:31.026Z,7.10
2019-02-14T14:44:59.542Z,7.10
2019-02-14T14:47:28.011Z,7.00
2019-02-14T14:49:56.480Z,6.90
2019-02-14T14:52:25.033Z,6.80
2019-02-14T14:54:53.479Z,6.80
2019-02-14T14:57:21.951Z,6.60
2019-02-14T14:59:50.383Z,6.60
2019-02-14T15:02:18.884Z,6.50
2019-02-14T15:04:47.378Z,6.60
2019-02-14T15:07:15.852Z,6.70
2019-02-14T15:09:44.318Z,6.70
2019-02-14T15:12:12.772Z,6.60
2019-02-14T15:14:41.294Z,6.50
2019-02-14T15:17:09.737Z,6.40
2019-02-14T15:19:38.227Z,6.30
2019-02-14T15:22:06.697Z,6.30
2019-02-14T15:24:35.232Z,6.20
2019-02-14T15:27:03.698Z,6.20
2019-02-14T15:29:32.203Z,6.10
2019-02-14T15:32:01.998Z,6.00
2019-02-14T15:34:30.455Z,5.90
2019-02-14T15:36:58.919Z,5.90
2019-02-14T15:39:27.383Z,5.80
2019-02-14T15:41:56.255Z,5.80
2019-02-14T15:44:24.882Z,5.70
2019-02-14T15:46:53.319Z,5.60
2019-02-14T15:49:23.126Z,5.50
2019-02-14T15:51:51.973Z,5.40
2019-02-14T15:54:20.425Z,5.40
2019-02-14T15:56:48.871Z,5.30
2019-02-14T15:59:18.954Z,5.10
2019-02-14T16:01:47.552Z,5.10
2019-02-14T16:04:15.986Z,5.10
2019-02-14T16:06:44.462Z,5.00
2019-02-14T16:09:14.511Z,4.90
2019-02-14T16:11:43.148Z,4.80
2019-02-14T16:14:11.673Z,4.70
2019-02-14T16:16:40.115Z,4.70
2019-02-14T16:19:09.175Z,4.60
2019-02-14T16:21:38.822Z,4.50
2019-02-14T16:24:07.363Z,4.40
2019-02-14T16:26:37.248Z,4.50
2019-02-14T16:29:06.039Z,4.40
2019-02-14T16:31:34.506Z,4.20
2019-02-14T16:34:03.017Z,4.10
2019-02-14T16:36:32.669Z,4.00
2019-02-14T16:39:01.530Z,3.90
2019-02-14T16:41:30.163Z,3.80
2019-02-14T16:43:58.648Z,3.70
2019-02-14T16:46:27.201Z,3.60
2019-02-14T16:48:55.672Z,3.50
2019-02-14T16:51:24.097Z,3.40
2019-02-14T16:53:52.572Z,3.40
2019-02-14T16:56:21.084Z,3.30
2019-02-14T16:58:49.619Z,3.30
2019-02-14T17:01:18.157Z,3.20
2019-02-14T17:03:46.587Z,3.10
2019-02-14T17:06:15.066Z,3.00
2019-02-14T17:08:43.492Z,2.90
2019-02-14T17:11:11.950Z,2.90
2019-02-14T17:13:40.439Z,2.80
2019-02-14T17:16:08.866Z,2.70
2019-02-14T17:18:37.337Z,2.60
2019-02-14T17:21:05.863Z,2.60
2019-02-14T17:23:34.425Z,2.50
2019-02-14T17:26:04.899Z,2.40
2019-02-14T17:28:33.701Z,2.40
2019-02-14T17:31:02.153Z,2.40
2019-02-14T17:33:30.586Z,2.40
2019-02-14T17:35:59.037Z,2.50
2019-02-14T17:38:27.495Z,2.40
2019-02-14T17:40:55.949Z,2.40
2019-02-14T17:43:24.430Z,2.30
2019-02-14T17:45:52.887Z,2.20
2019-02-14T17:48:21.443Z,2.00
2019-02-14T17:50:49.953Z,2.00
2019-02-14T17:53:18.388Z,1.90
2019-02-14T17:55:46.865Z,1.90
2019-02-14T17:58:15.349Z,1.70
2019-02-14T18:00:43.780Z,1.40
2019-02-14T18:03:12.246Z,1.20
2019-02-14T18:05:40.698Z,1.00
2019-02-14T18:08:09.153Z,0.90
2019-02-14T18:10:37.634Z,0.80
2019-02-14T18:13:06.070Z,0.80
2019-02-14T18:15:34.558Z,0.80
2019-02-14T18:18:03.111Z,0.90
2019-02-14T18:20:31.569Z,0.90
2019-02-14T18:23:00.001Z,0.90
2019-02-14T18:25:28.454Z,0.90
2019-02-14T18:27:56.948Z,0.90
2019-02-14T18:30:25.465Z,0.90
2019-02-14T18:32:54.060Z,0.90
2019-02-14T18:35:22.750Z,0.90
2019-02-14T18:37:51.399Z,0.80
2019-02-14T18:40:19.956Z,0.70
2019-02-14T18:42:48.973Z,0.70
2019-02-14T18:45:17.674Z,0.60
2019-02-14T18:47:46.359Z,0.50
2019-02-14T18:50:15.238Z,0.40
2019-02-14T18:52:43.892Z,0.30
2019-02-14T18:55:18.324Z,0.30
2019-02-14T18:57:46.832Z,0.30
2019-02-14T19:00:17.149Z,0.10
2019-02-14T19:02:45.709Z,0.10
2019-02-14T19:05:14.220Z,0.10
2019-02-14T19:07:43.248Z,0.10
2019-02-14T19:10:13.618Z,0.10
2019-02-14T19:12:42.086Z,0.00
2019-02-14T19:15:12.207Z,-0.10
2019-02-14T19:17:40.828Z,-0.10
2019-02-14T19:20:11.109Z,-0.30
2019-02-14T19:22:40.806Z,-0.30
2019-02-14T19:25:09.839Z,-0.40
2019-02-14T19:27:38.338Z,-0.40
2019-02-14T19:30:09.926Z,-0.40
2019-02-14T19:32:38.595Z,-0.40
2019-02-14T19:35:08.759Z,-0.40
2019-02-14T19:37:37.358Z,-0.50
2019-02-14T19:40:08.968Z,-0.50
2019-02-14T19:42:37.434Z,-0.50
2019-02-14T19:45:08.971Z,-0.60
2019-02-14T19:47:37.500Z,-0.80
2019-02-14T19:50:09.403Z,-0.80
2019-02-14T19:52:37.832Z,-0.90
2019-02-14T19:55:10.307Z,-0.90
2019-02-14T19:57:38.758Z,-0.90
2019-02-14T20:00:14.273Z,-1.00
2019-02-14T20:02:42.807Z,-1.00
2019-02-14T20:05:11.333Z,-1.00
2019-02-14T20:07:39.854Z,-1.00
2019-02-14T20:10:10.855Z,-1.00
2019-02-14T20:12:39.342Z,-1.00
2019-02-14T20:15:15.878Z,-1.00
2019-02-14T20:17:44.439Z,-1.00
2019-02-14T20:20:13.066Z,-1.00
2019-02-14T20:22:41.578Z,-1.10
2019-02-14T20:25:13.158Z,-1.20
2019-02-14T20:27:41.627Z,-1.30
2019-02-14T20:30:10.428Z,-1.40
2019-02-14T20:32:38.984Z,-1.30
2019-02-14T20:35:08.778Z,-1.30
2019-02-14T20:37:37.334Z,-1.30
2019-02-14T20:40:08.620Z,-1.20
2019-02-14T20:42:37.142Z,-1.20
2019-02-14T20:45:11.475Z,-1.20
2019-02-14T20:47:40.035Z,-1.20
2019-02-14T20:50:11.295Z,-1.30
2019-02-14T20:52:39.907Z,-1.20
2019-02-14T20:55:11.227Z,-1.10
2019-02-14T20:57:39.724Z,-1.20
2019-02-14T21:00:15.871Z,-1.30
2019-02-14T21:02:44.412Z,-1.40
2019-02-14T21:05:12.949Z,-1.40
2019-02-14T21:07:41.497Z,-1.50
2019-02-14T21:10:09.974Z,-1.50
2019-02-14T21:12:38.546Z,-1.60
2019-02-14T21:15:09.086Z,-1.50
2019-02-14T21:17:37.586Z,-1.50
2019-02-14T21:20:09.290Z,-1.50
2019-02-14T21:22:37.803Z,-1.50
2019-02-14T21:25:08.193Z,-1.70
2019-02-14T21:27:36.733Z,-1.70
2019-02-14T21:30:14.507Z,-1.70
2019-02-14T21:32:43.029Z,-1.70
2019-02-14T21:35:11.576Z,-1.90
2019-02-14T21:37:40.180Z,-1.90
2019-02-14T21:40:18.085Z,-1.90
2019-02-14T21:42:46.625Z,-1.90
2019-02-14T21:45:16.092Z,-1.80
2019-02-14T21:47:44.549Z,-1.80
2019-02-14T21:50:14.532Z,-1.80
2019-02-14T21:52:43.146Z,-1.80
2019-02-14T21:55:15.395Z,-1.80
2019-02-14T21:57:43.933Z,-1.80
2019-02-14T22:00:20.911Z,-1.80
2019-02-14T22:02:49.404Z,-1.90
2019-02-14T22:05:23.953Z,-1.90
2019-02-14T22:07:48.059Z,-2.00
2019-02-14T22:10:16.578Z,-2.00
2019-02-14T22:12:45.077Z,-1.90
2019-02-14T22:15:21.959Z,-1.90
2019-02-14T22:17:50.504Z,-1.90
2019-02-14T22:20:19.074Z,-1.90
2019-02-14T22:22:47.601Z,-2.00
2019-02-14T22:25:16.227Z,-2.00
2019-02-14T22:27:44.824Z,-2.10
2019-02-14T22:30:15.387Z,-2.10
2019-02-14T22:32:44.658Z,-2.20
2019-02-14T22:35:13.322Z,-2.20
2019-02-14T22:37:41.778Z,-2.30
2019-02-14T22:40:12.110Z,-2.30
2019-02-14T22:42:47.226Z,-2.30
2019-02-14T22:45:13.957Z,-2.30
2019-02-14T22:47:43.565Z,-2.30
2019-02-14T22:50:13.052Z,-2.40
2019-02-14T22:52:41.598Z,-2.40
2019-02-14T22:55:11.302Z,-2.40
2019-02-14T22:57:39.774Z,-2.40
2019-02-14T23:00:28.329Z,-2.40
2019-02-14T23:02:56.821Z,-2.40
2019-02-14T23:05:25.357Z,-2.40
2019-02-14T23:07:53.901Z,-2.50
2019-02-14T23:10:22.439Z,-2.50
2019-02-14T23:12:55.576Z,-2.40
2019-02-14T23:15:21.146Z,-2.40
2019-02-14T23:17:49.614Z,-2.40
2019-02-14T23:20:18.178Z,-2.40
2019-02-14T23:22:46.735Z,-2.50
2019-02-14T23:25:15.189Z,-2.50
2019-02-14T23:27:43.648Z,-2.50
2019-02-14T23:30:12.773Z,-2.60
2019-02-14T23:32:41.201Z,-2.60
2019-02-14T23:35:09.651Z,-2.60
2019-02-14T23:37:38.106Z,-2.70
2019-02-14T23:40:07.280Z,-2.70
2019-02-14T23:42:35.710Z,-2.70
2019-02-14T23:45:05.502Z,-2.60
2019-02-14T23:47:33.957Z,-2.50
2019-02-14T23:50:02.681Z,-2.50
2019-02-14T23:52:31.137Z,-2.50
2019-02-14T23:55:00.818Z,-2.40
2019-02-14T23:57:29.289Z,-2.40
2019-02-14T23:59:57.726Z,-2.60
